Cement City, Michigan
Current Conditions -  °F | °C
As of 1:56 AM on Friday 19 Dec 2014 (Local Time) from KJXN Reporting Station
Haze Haze  
Wind Chill: 28°   Ceiling: 500
Heat Index: 28°   Visibility: 3mi
Dew Point: 26°   Wind: 3mph
Humidity: 92%   Direction: 280°W
Pressure: 30.18"   Gusts: NA
Location:  42.07°N, 84.33°W
Report Text: KJXN 190656Z 28003KT 3SM BR OVC005 M02/M03 A3018 RMK AO2 SLP231 T10221033
Loading
Personal Weather Stations






























Interactive Weather Map New forecast layout! Learn more

10-Day Weather Forecast

Advertisements
Track Severe Weather on mobile